Franklin, West Virginia
Current Conditions -  °F | °C
As of 9:55 PM on Tuesday 25 Nov 2014 (Local Time) from KW99 Reporting Station
Clear Clear  
Wind Chill:   Ceiling: Unl
Heat Index:   Visibility: 10mi
Dew Point: -3°   Wind: 5mph
Humidity: 71%   Direction: 290°WNW
Pressure: 30.14"   Gusts: NA
Location:  38.64°N, 79.33°W
Report Text: KW99 260255Z AUTO 29004KT 10SM CLR 02/M02 A3014 RMK AO2 T00221025
Loading
Personal Weather Stations






























Interactive Weather Map New forecast layout! Learn more

10-Day Weather Forecast

Advertisements
Track Severe Weather on mobile